createdAt,value
2022-10-06T00:02:35.200Z,92.96
2022-10-06T00:07:37.918Z,92.21
2022-10-06T00:12:42.086Z,88.90
2022-10-06T00:17:46.269Z,86.47
2022-10-06T00:22:49.865Z,86.03
2022-10-06T00:27:54.161Z,85.04
2022-10-06T00:33:00.743Z,84.85
2022-10-06T00:38:04.648Z,84.75
2022-10-06T00:43:07.689Z,85.12
2022-10-06T00:48:16.537Z,85.60
2022-10-06T00:53:19.559Z,85.97
2022-10-06T00:58:22.731Z,85.77
2022-10-06T01:03:30.860Z,87.20
2022-10-06T01:08:35.412Z,87.35
2022-10-06T01:13:38.219Z,87.75
2022-10-06T01:18:44.742Z,88.37
2022-10-06T01:23:49.864Z,90.11
2022-10-06T01:28:53.267Z,90.88
2022-10-06T01:33:57.165Z,91.73
2022-10-06T01:39:01.831Z,92.24
2022-10-06T01:44:04.967Z,93.52
2022-10-06T01:49:07.873Z,94.22
2022-10-06T01:54:12.400Z,94.30
2022-10-06T01:59:15.232Z,94.76
2022-10-06T02:04:18.344Z,95.14
2022-10-06T02:09:22.518Z,95.34
2022-10-06T02:14:25.798Z,95.08
2022-10-06T02:19:29.795Z,94.02
2022-10-06T02:24:35.760Z,93.21
2022-10-06T02:29:39.370Z,93.63
2022-10-06T02:34:43.604Z,93.67
2022-10-06T02:39:48.575Z,93.75
2022-10-06T02:44:52.194Z,93.31
2022-10-06T02:49:55.089Z,93.07
2022-10-06T02:54:59.374Z,92.60
2022-10-06T03:00:02.123Z,92.13
2022-10-06T03:05:08.505Z,92.79
2022-10-06T03:10:12.914Z,93.85
2022-10-06T03:15:15.779Z,93.92
2022-10-06T03:20:18.870Z,95.37
2022-10-06T03:25:23.248Z,95.76
2022-10-06T03:30:26.049Z,94.62
2022-10-06T03:35:29.079Z,94.43
2022-10-06T03:40:33.910Z,94.13
2022-10-06T03:45:36.801Z,92.92
2022-10-06T03:50:39.678Z,92.77
2022-10-06T03:55:43.905Z,92.93
2022-10-06T04:00:46.995Z,92.85
2022-10-06T04:05:54.215Z,92.88
2022-10-06T04:11:06.901Z,92.71
2022-10-06T04:16:14.873Z,93.08
2022-10-06T04:21:18.565Z,93.19
2022-10-06T04:26:24.559Z,93.69
2022-10-06T04:31:30.221Z,94.55
2022-10-06T04:36:35.672Z,94.52
2022-10-06T04:41:41.757Z,95.28
2022-10-06T04:46:46.941Z,96.24
2022-10-06T04:51:50.841Z,96.87
2022-10-06T04:56:56.698Z,96.26
2022-10-06T05:02:02.627Z,96.97
2022-10-06T05:07:06.079Z,96.29
2022-10-06T05:12:10.856Z,96.16
2022-10-06T05:17:14.516Z,95.68
2022-10-06T05:22:17.640Z,95.24
2022-10-06T05:27:22.215Z,94.25
2022-10-06T05:32:25.119Z,93.62
2022-10-06T05:37:29.577Z,93.58
2022-10-06T05:42:34.129Z,93.80
2022-10-06T05:47:37.013Z,92.88
2022-10-06T05:52:40.457Z,93.69
2022-10-06T05:57:44.814Z,92.72
2022-10-06T06:02:47.964Z,93.16
2022-10-06T06:07:51.181Z,92.37
2022-10-06T06:12:55.411Z,91.97
2022-10-06T06:18:27.678Z,89.48
2022-10-06T06:23:34.337Z,86.21
2022-10-06T06:28:40.239Z,81.27
2022-10-06T06:33:43.634Z,77.89
2022-10-06T06:38:49.648Z,78.03
2022-10-06T06:43:54.864Z,73.23
2022-10-06T06:49:07.212Z,64.49
2022-10-06T06:54:14.492Z,56.12
2022-10-06T06:59:21.285Z,58.73
2022-10-06T07:04:26.509Z,58.40
2022-10-06T07:09:29.521Z,58.85
2022-10-06T07:15:01.148Z,57.86
2022-10-06T07:20:24.541Z,56.88
2022-10-06T07:25:27.962Z,63.84
2022-10-06T07:30:40.432Z,69.83
2022-10-06T07:35:47.411Z,71.79
2022-10-06T07:41:17.939Z,73.19
2022-10-06T07:46:21.233Z,74.90
2022-10-06T07:51:33.224Z,76.12
2022-10-06T07:56:37.741Z,74.73
2022-10-06T08:01:44.076Z,74.66
2022-10-06T08:06:49.246Z,74.69
2022-10-06T08:11:52.915Z,73.95
2022-10-06T08:16:57.461Z,74.12
2022-10-06T08:22:04.620Z,73.46
2022-10-06T08:27:09.703Z,72.83
2022-10-06T08:32:13.814Z,72.66
2022-10-06T08:37:20.136Z,72.98
2022-10-06T08:42:31.919Z,72.77
2022-10-06T08:47:37.923Z,72.99
2022-10-06T08:52:50.404Z,72.41
2022-10-06T09:03:23.807Z,70.67
2022-10-06T09:08:41.987Z,70.25
2022-10-06T09:13:52.128Z,68.95
2022-10-06T09:19:12.401Z,69.04
2022-10-06T09:24:17.983Z,68.75
2022-10-06T09:29:20.831Z,67.57
2022-10-06T09:34:34.903Z,67.27
2022-10-06T09:39:39.424Z,66.48
2022-10-06T09:44:50.116Z,65.45
2022-10-06T09:50:16.422Z,65.89
2022-10-06T09:55:22.857Z,65.13
2022-10-06T10:00:30.391Z,63.08
2022-10-06T10:05:37.811Z,63.36
2022-10-06T10:10:41.369Z,63.85
2022-10-06T10:15:53.522Z,64.61
2022-10-06T10:21:00.437Z,64.43
2022-10-06T10:26:17.476Z,63.76
2022-10-06T10:31:27.498Z,62.99
2022-10-06T10:36:38.448Z,62.57
2022-10-06T10:41:47.127Z,61.80
2022-10-06T10:46:53.404Z,61.33
2022-10-06T10:52:03.738Z,60.53
2022-10-06T10:57:14.885Z,60.79
2022-10-06T11:02:20.798Z,60.98
2022-10-06T11:07:29.464Z,61.35
2022-10-06T11:12:54.457Z,59.60
2022-10-06T11:18:05.733Z,59.29
2022-10-06T11:23:31.598Z,59.53
2022-10-06T11:28:46.017Z,59.17
2022-10-06T11:33:52.712Z,58.23
2022-10-06T11:39:03.945Z,57.14
2022-10-06T11:44:16.739Z,57.63
2022-10-06T11:49:53.247Z,58.00
2022-10-06T11:55:07.339Z,57.70
2022-10-06T12:00:46.011Z,56.51
2022-10-06T12:05:56.252Z,56.41
2022-10-06T12:11:01.397Z,56.01
2022-10-06T12:22:01.966Z,56.42
2022-10-06T12:27:49.327Z,55.87
2022-10-06T12:32:57.353Z,56.49
2022-10-06T12:38:04.719Z,57.56
2022-10-06T12:43:29.894Z,56.59
2022-10-06T12:48:40.086Z,56.56
2022-10-06T12:53:52.443Z,56.84
2022-10-06T12:58:56.819Z,57.35
2022-10-06T13:04:01.023Z,57.08
2022-10-06T13:09:08.543Z,56.75
2022-10-06T13:14:15.000Z,55.89
2022-10-06T13:19:21.742Z,54.86
2022-10-06T13:24:27.485Z,55.59
2022-10-06T13:29:31.773Z,56.15
2022-10-06T13:34:43.239Z,56.64
2022-10-06T13:39:46.685Z,56.02
2022-10-06T13:44:57.503Z,55.13
2022-10-06T13:50:04.102Z,55.16
2022-10-06T13:55:16.604Z,55.03
2022-10-06T14:00:23.652Z,56.28
2022-10-06T14:05:32.661Z,55.64
2022-10-06T14:10:47.465Z,55.36
2022-10-06T14:15:53.993Z,56.90
2022-10-06T14:20:58.106Z,55.69
2022-10-06T14:26:01.356Z,54.35
2022-10-06T14:31:05.661Z,55.33
2022-10-06T14:36:17.036Z,54.95
2022-10-06T14:41:24.908Z,55.07
2022-10-06T14:46:30.042Z,55.32
2022-10-06T14:51:36.580Z,55.84
2022-10-06T14:56:41.133Z,56.09
2022-10-06T15:01:45.717Z,55.30
2022-10-06T15:07:06.270Z,55.67
2022-10-06T15:12:09.081Z,55.75
2022-10-06T15:17:13.201Z,56.28
2022-10-06T15:22:15.990Z,57.10
2022-10-06T15:27:36.177Z,57.84
2022-10-06T15:32:40.279Z,57.49
2022-10-06T15:37:43.064Z,57.50
2022-10-06T15:42:46.675Z,58.23
2022-10-06T15:47:52.803Z,58.90
2022-10-06T15:52:55.537Z,60.97
2022-10-06T15:57:58.512Z,61.07
2022-10-06T16:03:09.206Z,61.95
2022-10-06T16:08:12.101Z,62.03
2022-10-06T16:13:15.206Z,62.00
2022-10-06T16:18:19.282Z,62.18
2022-10-06T16:23:22.738Z,62.49
2022-10-06T16:28:25.846Z,64.26
2022-10-06T16:33:29.969Z,64.56
2022-10-06T16:38:32.893Z,65.03
2022-10-06T16:43:37.671Z,65.90
2022-10-06T16:48:43.792Z,67.42
2022-10-06T16:53:48.623Z,68.48
2022-10-06T16:58:53.908Z,69.30
2022-10-06T17:04:03.691Z,70.45
2022-10-06T17:09:08.094Z,70.87
2022-10-06T17:14:11.331Z,71.00
2022-10-06T17:19:19.955Z,72.11
2022-10-06T17:24:25.494Z,72.70
2022-10-06T17:29:28.386Z,73.52
2022-10-06T17:34:34.207Z,74.16
2022-10-06T17:39:41.565Z,73.69
2022-10-06T17:44:53.235Z,73.86
2022-10-06T17:49:57.468Z,74.25
2022-10-06T17:55:01.004Z,74.55
2022-10-06T18:00:07.435Z,75.41
2022-10-06T18:05:16.690Z,75.16
2022-10-06T18:10:37.360Z,74.85
2022-10-06T18:15:40.635Z,75.21
2022-10-06T18:20:49.509Z,75.82
2022-10-06T18:25:52.434Z,74.83
2022-10-06T18:30:55.243Z,75.21
2022-10-06T18:36:11.713Z,75.70
2022-10-06T18:41:31.514Z,75.85
2022-10-06T18:46:52.274Z,76.12
2022-10-06T18:51:58.524Z,76.52
2022-10-06T18:57:02.034Z,76.34
2022-10-06T19:02:13.729Z,77.03
2022-10-06T19:07:20.801Z,76.24
2022-10-06T19:12:23.981Z,75.13
2022-10-06T19:17:29.020Z,75.83
2022-10-06T19:22:37.040Z,76.71
2022-10-06T19:27:40.518Z,76.78
2022-10-06T19:32:44.327Z,77.42
2022-10-06T19:37:51.176Z,78.30
2022-10-06T19:42:54.093Z,79.08
2022-10-06T19:47:58.073Z,78.97
2022-10-06T19:53:04.692Z,79.78
2022-10-06T19:58:17.058Z,80.03
2022-10-06T20:03:50.822Z,80.23
2022-10-06T20:09:09.144Z,79.74
2022-10-06T20:19:57.811Z,81.49
2022-10-06T20:25:18.480Z,81.79
2022-10-06T20:30:24.324Z,81.32
2022-10-06T20:35:27.090Z,82.56
2022-10-06T20:40:49.118Z,83.02
2022-10-06T20:45:54.720Z,83.38
2022-10-06T20:50:57.772Z,83.08
2022-10-06T20:56:01.920Z,83.47
2022-10-06T21:01:06.988Z,83.13
2022-10-06T21:06:10.450Z,83.45
2022-10-06T21:11:17.680Z,83.80
2022-10-06T21:16:21.273Z,83.58
2022-10-06T21:21:24.190Z,83.37
2022-10-06T21:26:28.891Z,84.62
2022-10-06T21:31:32.142Z,84.56
2022-10-06T21:36:35.097Z,84.24
2022-10-06T21:41:40.261Z,85.46
2022-10-06T21:46:48.155Z,85.44
2022-10-06T21:51:52.740Z,85.59
2022-10-06T21:56:57.868Z,86.22
2022-10-06T22:02:00.712Z,85.73
2022-10-06T22:07:03.544Z,84.96
2022-10-06T22:12:07.674Z,85.48
2022-10-06T22:17:10.398Z,85.94
2022-10-06T22:22:13.176Z,86.50
2022-10-06T22:27:20.379Z,85.84
2022-10-06T22:32:24.167Z,86.73
2022-10-06T22:37:28.188Z,85.63
2022-10-06T22:42:32.318Z,86.63
2022-10-06T22:47:35.039Z,86.33
2022-10-06T22:52:37.796Z,86.38
2022-10-06T22:57:42.180Z,86.80
2022-10-06T23:02:46.246Z,87.43
2022-10-06T23:07:53.465Z,88.05
2022-10-06T23:12:59.757Z,87.54
2022-10-06T23:18:03.852Z,87.75
2022-10-06T23:23:06.727Z,87.83
2022-10-06T23:28:10.824Z,87.53
2022-10-06T23:33:13.662Z,87.85
2022-10-06T23:38:16.393Z,87.65
2022-10-06T23:43:20.876Z,87.08
2022-10-06T23:48:23.632Z,88.27
2022-10-06T23:53:26.848Z,88.32
2022-10-06T23:58:30.945Z,89.49
